createdAt,value
2023-05-20T00:00:07.685Z,98814.66
2023-05-20T00:02:36.335Z,98817.13
2023-05-20T00:05:05.474Z,98814.72
2023-05-20T00:07:34.107Z,98817.41
2023-05-20T00:10:02.623Z,98814.25
2023-05-20T00:12:31.377Z,98823.31
2023-05-20T00:15:00.304Z,98833.47
2023-05-20T00:17:29.397Z,98828.25
2023-05-20T00:19:58.062Z,98829.44
2023-05-20T00:22:26.569Z,98831.91
2023-05-20T00:24:55.033Z,98834.59
2023-05-20T00:27:23.495Z,98842.16
2023-05-20T00:29:51.917Z,98842.75
2023-05-20T00:32:20.476Z,98844.72
2023-05-20T00:34:58.866Z,98851.72
2023-05-20T00:37:28.400Z,98852.09
2023-05-20T00:39:57.066Z,98844.25
2023-05-20T00:42:27.904Z,98851.03
2023-05-20T00:44:57.402Z,98853.72
2023-05-20T00:47:31.028Z,98865.63
2023-05-20T00:50:00.229Z,98856.03
2023-05-20T00:52:32.478Z,98855.91
2023-05-20T00:55:01.265Z,98864.22
2023-05-20T00:57:29.980Z,98862.75
2023-05-20T00:59:58.892Z,98864.66
2023-05-20T01:02:27.554Z,98872.41
2023-05-20T01:04:57.581Z,98877.91
2023-05-20T01:07:26.960Z,98888.28
2023-05-20T01:09:57.075Z,98893.78
2023-05-20T01:12:32.716Z,98884.94
2023-05-20T01:15:06.765Z,98889.88
2023-05-20T01:17:42.564Z,98896.88
2023-05-20T01:20:11.679Z,98901.81
2023-05-20T01:22:53.283Z,98900.91
2023-05-20T01:25:22.047Z,98901.69
2023-05-20T01:27:51.609Z,98906.41
2023-05-20T01:30:20.555Z,98910.56
2023-05-20T01:33:03.948Z,98903.44
2023-05-20T01:35:33.082Z,98905.53
2023-05-20T01:38:02.469Z,98908.94
2023-05-20T01:40:31.660Z,98905.94
2023-05-20T01:43:01.323Z,98904.25
2023-05-20T01:45:29.856Z,98907.13
2023-05-20T01:47:58.332Z,98903.34
2023-05-20T01:50:27.700Z,98909.19
2023-05-20T01:52:56.324Z,98907.13
2023-05-20T01:55:25.871Z,98909.97
2023-05-20T01:57:54.270Z,98910.72
2023-05-20T02:00:22.721Z,98918.28
2023-05-20T02:02:51.346Z,98918.28
2023-05-20T02:05:19.910Z,98920.91
2023-05-20T02:07:48.352Z,98923.53
2023-05-20T02:10:17.166Z,98923.16
2023-05-20T02:12:45.610Z,98919.41
2023-05-20T02:15:14.045Z,98926.94
2023-05-20T02:17:44.558Z,98921.63
2023-05-20T02:20:14.805Z,98935.59
2023-05-20T02:22:46.102Z,98929.75
2023-05-20T02:25:14.861Z,98925.19
2023-05-20T02:27:43.651Z,98934.28
2023-05-20T02:30:12.549Z,98935.38
2023-05-20T02:32:41.050Z,98928.00
2023-05-20T02:35:09.830Z,98937.03
2023-05-20T02:37:39.976Z,98938.91
2023-05-20T02:40:10.288Z,98938.91
2023-05-20T02:42:38.844Z,98940.78
2023-05-20T02:45:08.002Z,98938.47
2023-05-20T02:47:36.558Z,98939.03
2023-05-20T02:50:05.384Z,98939.03
2023-05-20T02:52:33.887Z,98934.63
2023-05-20T02:55:02.894Z,98933.84
2023-05-20T02:57:31.760Z,98929.25
2023-05-20T03:00:00.251Z,98928.66
2023-05-20T03:02:28.723Z,98941.28
2023-05-20T03:04:57.420Z,98937.09
2023-05-20T03:07:26.283Z,98943.47
2023-05-20T03:09:54.900Z,98946.25
2023-05-20T03:12:23.389Z,98949.63
2023-05-20T03:14:56.145Z,98945.03
2023-05-20T03:17:24.605Z,98948.75
2023-05-20T03:19:53.055Z,98950.63
2023-05-20T03:22:21.772Z,98946.19
2023-05-20T03:24:50.379Z,98948.81
2023-05-20T03:27:18.945Z,98945.31
2023-05-20T03:29:49.207Z,98944.34
2023-05-20T03:32:17.814Z,98952.22
2023-05-20T03:34:46.334Z,98957.81
2023-05-20T03:37:14.759Z,98959.66
2023-05-20T03:39:43.282Z,98953.16
2023-05-20T03:42:11.795Z,98952.34
2023-05-20T03:44:40.209Z,98958.69
2023-05-20T03:47:08.654Z,98943.66
2023-05-20T03:49:37.185Z,98945.81
2023-05-20T03:52:05.857Z,98938.69
2023-05-20T03:54:34.491Z,98939.38
2023-05-20T03:57:04.101Z,98936.94
2023-05-20T03:59:32.548Z,98930.53
2023-05-20T04:02:01.010Z,98931.06
2023-05-20T04:04:29.560Z,98933.03
2023-05-20T04:06:58.251Z,98928.72
2023-05-20T04:09:26.704Z,98931.03
2023-05-20T04:11:55.113Z,98924.66
2023-05-20T04:14:23.902Z,98919.31
2023-05-20T04:16:52.637Z,98925.19
2023-05-20T04:19:21.668Z,98925.97
2023-05-20T04:21:50.172Z,98931.28
2023-05-20T04:24:18.563Z,98922.75
2023-05-20T04:26:47.805Z,98920.06
2023-05-20T04:29:17.019Z,98915.75
2023-05-20T04:31:46.542Z,98906.44
2023-05-20T04:34:15.929Z,98907.94
2023-05-20T04:36:44.513Z,98897.91
2023-05-20T04:39:13.659Z,98893.84
2023-05-20T04:41:42.115Z,98878.97
2023-05-20T04:44:10.565Z,98880.47
2023-05-20T04:46:39.169Z,98878.31
2023-05-20T04:49:08.523Z,98883.41
2023-05-20T04:51:36.943Z,98879.63
2023-05-20T04:54:05.459Z,98870.00
2023-05-20T04:56:34.620Z,98878.22
2023-05-20T04:59:03.577Z,98871.59
2023-05-20T05:01:33.548Z,98872.19
2023-05-20T05:04:02.357Z,98862.06
2023-05-20T05:06:31.042Z,98859.91
2023-05-20T05:08:59.483Z,98862.09
2023-05-20T05:11:28.017Z,98856.19
2023-05-20T05:13:57.595Z,98858.00
2023-05-20T05:16:26.356Z,98851.31
2023-05-20T05:18:55.014Z,98846.13
2023-05-20T05:21:23.574Z,98836.47
2023-05-20T05:23:52.077Z,98845.59
2023-05-20T05:26:20.534Z,98842.88
2023-05-20T05:28:49.108Z,98831.69
2023-05-20T05:31:17.582Z,98828.34
2023-05-20T05:33:46.246Z,98829.84
2023-05-20T05:36:14.925Z,98822.44
2023-05-20T05:38:43.559Z,98810.63
2023-05-20T05:41:12.208Z,98811.66
2023-05-20T05:43:40.681Z,98807.44
2023-05-20T05:46:10.633Z,98801.22
2023-05-20T05:48:39.358Z,98799.38
2023-05-20T05:51:07.841Z,98797.66
2023-05-20T05:53:36.325Z,98790.19
2023-05-20T05:56:04.882Z,98781.75
2023-05-20T05:58:34.110Z,98787.06
2023-05-20T06:01:02.996Z,98775.75
2023-05-20T06:03:32.062Z,98774.13
2023-05-20T06:06:00.551Z,98766.28
2023-05-20T06:08:29.001Z,98760.09
2023-05-20T06:10:57.471Z,98766.06
2023-05-20T06:13:25.967Z,98757.09
2023-05-20T06:15:54.686Z,98749.78
2023-05-20T06:18:23.137Z,98743.09
2023-05-20T06:21:01.201Z,98738.00
2023-05-20T06:23:29.712Z,98739.88
2023-05-20T06:26:01.806Z,98733.78
2023-05-20T06:28:31.664Z,98728.91
2023-05-20T06:31:00.229Z,98721.31
2023-05-20T06:33:30.731Z,98718.69
2023-05-20T06:36:00.275Z,98716.81
2023-05-20T06:38:29.092Z,98707.72
2023-05-20T06:40:57.609Z,98698.56
2023-05-20T06:43:26.014Z,98696.56
2023-05-20T06:45:55.246Z,98695.94
2023-05-20T06:48:23.711Z,98691.69
2023-05-20T06:50:52.201Z,98692.31
2023-05-20T06:53:23.224Z,98685.22
2023-05-20T06:55:51.786Z,98681.22
2023-05-20T06:58:20.230Z,98680.75
2023-05-20T07:00:49.075Z,98674.41
2023-05-20T07:03:17.991Z,98667.06
2023-05-20T07:05:46.477Z,98649.38
2023-05-20T07:08:14.843Z,98650.97
2023-05-20T07:10:44.253Z,98643.88
2023-05-20T07:13:13.293Z,98642.50
2023-05-20T07:15:42.178Z,98638.88
2023-05-20T07:18:10.650Z,98651.22
2023-05-20T07:20:39.850Z,98639.19
2023-05-20T07:23:08.336Z,98634.94
2023-05-20T07:25:36.869Z,98627.84
2023-05-20T07:28:05.515Z,98616.72
2023-05-20T07:30:33.893Z,98624.47
2023-05-20T07:33:02.418Z,98617.88
2023-05-20T07:35:30.891Z,98619.25
2023-05-20T07:37:59.346Z,98619.13
2023-05-20T07:40:28.191Z,98613.06
2023-05-20T07:42:56.688Z,98609.09
2023-05-20T07:45:25.140Z,98609.59
2023-05-20T07:47:53.563Z,98606.88
2023-05-20T07:50:22.156Z,98603.28
2023-05-20T07:52:56.440Z,98597.94
2023-05-20T07:55:25.782Z,98587.34
2023-05-20T07:57:54.210Z,98587.13
2023-05-20T08:00:23.055Z,98578.91
2023-05-20T08:02:52.001Z,98576.56
2023-05-20T08:05:20.738Z,98563.50
2023-05-20T08:07:49.282Z,98563.88
2023-05-20T08:10:17.836Z,98557.00
2023-05-20T08:12:46.422Z,98555.91
2023-05-20T08:15:15.019Z,98551.31
2023-05-20T08:17:43.771Z,98552.03
2023-05-20T08:20:13.776Z,98552.66
2023-05-20T08:22:42.301Z,98541.31
2023-05-20T08:25:11.387Z,98541.41
2023-05-20T08:27:39.878Z,98539.66
2023-05-20T08:30:10.924Z,98545.38
2023-05-20T08:32:39.365Z,98538.75
2023-05-20T08:35:08.938Z,98532.06
2023-05-20T08:37:37.398Z,98528.19
2023-05-20T08:40:06.696Z,98517.06
2023-05-20T08:42:35.584Z,98520.44
2023-05-20T08:45:05.449Z,98520.50
2023-05-20T08:47:34.019Z,98518.75
2023-05-20T08:50:02.569Z,98510.81
2023-05-20T08:52:34.117Z,98508.56
2023-05-20T08:55:04.582Z,98503.22
2023-05-20T08:57:34.952Z,98496.50
2023-05-20T09:00:09.925Z,98498.94
2023-05-20T09:02:39.567Z,98502.84
2023-05-20T09:05:10.183Z,98506.16
2023-05-20T09:07:38.915Z,98508.59
2023-05-20T09:10:07.887Z,98502.75
2023-05-20T09:12:37.022Z,98497.53
2023-05-20T09:15:06.712Z,98501.00
2023-05-20T09:17:39.225Z,98496.50
2023-05-20T09:20:10.476Z,98496.22
2023-05-20T09:22:41.034Z,98496.81
2023-05-20T09:25:14.210Z,98498.91
2023-05-20T09:27:42.875Z,98497.28
2023-05-20T09:30:13.659Z,98497.16
2023-05-20T09:32:42.486Z,98500.63
2023-05-20T09:35:14.661Z,98498.22
2023-05-20T09:37:45.564Z,98495.38
2023-05-20T09:40:16.532Z,98500.94
2023-05-20T09:42:54.133Z,98498.69
2023-05-20T09:45:23.855Z,98493.63
2023-05-20T09:47:56.747Z,98501.28
2023-05-20T09:50:26.412Z,98493.94
2023-05-20T09:52:56.700Z,98500.84
2023-05-20T09:55:26.255Z,98499.91
2023-05-20T09:57:55.757Z,98510.28
2023-05-20T10:00:24.164Z,98513.00
2023-05-20T10:02:54.351Z,98517.78
2023-05-20T10:05:30.579Z,98512.56
2023-05-20T10:08:17.523Z,98518.88
2023-05-20T10:11:07.814Z,98518.44
2023-05-20T10:13:36.186Z,98515.47
2023-05-20T10:16:35.196Z,98519.50
2023-05-20T10:19:09.958Z,98521.31
2023-05-20T10:21:38.947Z,98524.00
2023-05-20T10:24:09.266Z,98531.66
2023-05-20T10:26:42.632Z,98541.13
2023-05-20T10:29:21.041Z,98537.97
2023-05-20T10:31:54.683Z,98541.13
2023-05-20T10:34:24.649Z,98540.06
2023-05-20T10:36:56.111Z,98549.03
2023-05-20T10:39:32.399Z,98548.00
2023-05-20T10:42:11.522Z,98557.59
2023-05-20T10:44:47.545Z,98565.09
2023-05-20T10:47:25.426Z,98574.06
2023-05-20T10:49:54.673Z,98578.69
2023-05-20T10:52:23.301Z,98576.16
2023-05-20T10:54:59.813Z,98583.78
2023-05-20T10:57:30.133Z,98589.19
2023-05-20T10:59:59.016Z,98593.03
2023-05-20T11:02:29.468Z,98591.25
2023-05-20T11:05:01.128Z,98591.50
2023-05-20T11:07:33.463Z,98590.31
2023-05-20T11:10:01.886Z,98591.03
2023-05-20T11:12:30.337Z,98599.72
2023-05-20T11:14:58.813Z,98590.53
2023-05-20T11:17:27.258Z,98599.16
2023-05-20T11:19:55.729Z,98602.00
2023-05-20T11:22:24.150Z,98598.50
2023-05-20T11:24:52.508Z,98605.81
2023-05-20T11:27:21.057Z,98604.59
2023-05-20T11:29:52.192Z,98609.78
2023-05-20T11:32:22.337Z,98610.03
2023-05-20T11:34:54.248Z,98623.75
2023-05-20T11:37:22.936Z,98626.09
2023-05-20T11:40:03.913Z,98631.28
2023-05-20T11:42:33.732Z,98635.72
2023-05-20T11:45:05.410Z,98646.56
2023-05-20T11:47:33.860Z,98655.34
2023-05-20T11:50:02.688Z,98645.59
2023-05-20T11:52:31.185Z,98653.78
2023-05-20T11:54:59.628Z,98649.13
2023-05-20T11:57:28.074Z,98658.63
2023-05-20T11:59:57.113Z,98658.09
2023-05-20T12:02:25.614Z,98656.25
2023-05-20T12:04:54.195Z,98668.03
2023-05-20T12:07:24.324Z,98669.78
2023-05-20T12:09:52.744Z,98675.84
2023-05-20T12:12:21.311Z,98687.00
2023-05-20T12:14:49.860Z,98685.50
2023-05-20T12:17:18.265Z,98693.84
2023-05-20T12:19:46.752Z,98704.44
2023-05-20T12:22:15.252Z,98702.78
2023-05-20T12:24:43.696Z,98713.22
2023-05-20T12:27:12.243Z,98709.44
2023-05-20T12:29:40.723Z,98710.03
2023-05-20T12:32:09.408Z,98711.19
2023-05-20T12:34:37.910Z,98727.88
2023-05-20T12:37:06.604Z,98735.44
2023-05-20T12:39:35.037Z,98743.41
2023-05-20T12:42:03.976Z,98743.78
2023-05-20T12:44:32.420Z,98744.78
2023-05-20T12:47:00.966Z,98757.09
2023-05-20T12:49:29.574Z,98769.44
2023-05-20T12:51:59.937Z,98771.16
2023-05-20T12:54:30.016Z,98765.13
2023-05-20T12:56:59.485Z,98771.19
2023-05-20T12:59:27.936Z,98773.84
2023-05-20T13:01:56.392Z,98769.91
2023-05-20T13:04:25.706Z,98781.06
2023-05-20T13:06:54.284Z,98777.13
2023-05-20T13:09:22.789Z,98781.28
2023-05-20T13:11:51.311Z,98794.53
2023-05-20T13:14:19.766Z,98799.44
2023-05-20T13:16:49.372Z,98801.53
2023-05-20T13:19:17.827Z,98815.50
2023-05-20T13:21:46.655Z,98807.94
2023-05-20T13:24:15.170Z,98813.97
2023-05-20T13:26:43.701Z,98810.78
2023-05-20T13:29:13.591Z,98811.94
2023-05-20T13:31:42.059Z,98807.41
2023-05-20T13:34:10.760Z,98807.06
2023-05-20T13:36:39.221Z,98821.03
2023-05-20T13:39:07.952Z,98822.94
2023-05-20T13:41:36.544Z,98822.72
2023-05-20T13:44:05.751Z,98816.69
2023-05-20T13:46:34.601Z,98822.75
2023-05-20T13:49:03.416Z,98838.63
2023-05-20T13:51:32.778Z,98842.78
2023-05-20T13:54:01.886Z,98843.16
2023-05-20T13:56:30.436Z,98844.31
2023-05-20T13:58:59.191Z,98846.78
2023-05-20T14:01:27.685Z,98855.28
2023-05-20T14:03:56.248Z,98857.88
2023-05-20T14:06:25.732Z,98866.75
2023-05-20T14:08:57.871Z,98877.91
2023-05-20T14:11:26.499Z,98875.44
2023-05-20T14:13:54.950Z,98876.00
2023-05-20T14:16:23.502Z,98881.47
2023-05-20T14:18:52.105Z,98886.94
2023-05-20T14:21:20.625Z,98885.44
2023-05-20T14:23:49.238Z,98884.50
2023-05-20T14:26:17.715Z,98891.47
2023-05-20T14:28:46.502Z,98894.88
2023-05-20T14:31:15.065Z,98892.44
2023-05-20T14:33:43.556Z,98896.34
2023-05-20T14:36:12.509Z,98904.47
2023-05-20T14:38:40.885Z,98921.06
2023-05-20T14:41:09.336Z,98924.09
2023-05-20T14:43:37.830Z,98922.94
2023-05-20T14:46:06.665Z,98935.41
2023-05-20T14:48:35.093Z,98922.38
2023-05-20T14:51:03.578Z,98930.69
2023-05-20T14:53:31.996Z,98924.03
2023-05-20T14:56:00.498Z,98935.91
2023-05-20T14:58:28.900Z,98925.19
2023-05-20T15:00:57.792Z,98931.41
2023-05-20T15:03:26.285Z,98933.25
2023-05-20T15:05:54.698Z,98933.06
2023-05-20T15:08:23.148Z,98940.03
2023-05-20T15:10:51.723Z,98941.34
2023-05-20T15:13:20.156Z,98943.97
2023-05-20T15:15:48.729Z,98943.03
2023-05-20T15:18:17.735Z,98939.25
2023-05-20T15:20:46.358Z,98944.16
2023-05-20T15:23:14.868Z,98950.94
2023-05-20T15:25:43.305Z,98939.44
2023-05-20T15:28:11.924Z,98937.94
2023-05-20T15:30:40.751Z,98933.56
2023-05-20T15:33:09.502Z,98933.56
2023-05-20T15:35:38.122Z,98937.69
2023-05-20T15:38:07.448Z,98929.97
2023-05-20T15:40:36.205Z,98930.72
2023-05-20T15:43:05.294Z,98942.03
2023-05-20T15:45:34.163Z,98931.50
2023-05-20T15:48:03.148Z,98936.63
2023-05-20T15:50:31.652Z,98935.50
2023-05-20T15:53:00.189Z,98946.22
2023-05-20T15:55:28.722Z,98947.94
2023-05-20T15:57:57.308Z,98945.88
2023-05-20T16:00:26.086Z,98937.38
2023-05-20T16:02:57.678Z,98944.34
2023-05-20T16:05:26.569Z,98944.91
2023-05-20T16:07:56.228Z,98949.81
2023-05-20T16:10:26.154Z,98944.72
2023-05-20T16:12:54.776Z,98937.56
2023-05-20T16:15:23.244Z,98939.63
2023-05-20T16:17:51.692Z,98933.78
2023-05-20T16:20:20.500Z,98939.22
2023-05-20T16:22:49.809Z,98941.84
2023-05-20T16:25:18.254Z,98936.75
2023-05-20T16:27:47.035Z,98935.06
2023-05-20T16:30:15.469Z,98939.94
2023-05-20T16:32:44.022Z,98935.81
2023-05-20T16:35:16.158Z,98932.03
2023-05-20T16:37:45.432Z,98924.88
2023-05-20T16:40:14.260Z,98915.44
2023-05-20T16:42:43.347Z,98912.44
2023-05-20T16:45:12.868Z,98913.53
2023-05-20T16:47:42.208Z,98906.94
2023-05-20T16:50:11.567Z,98913.16
2023-05-20T16:52:40.159Z,98916.13
2023-05-20T16:55:09.298Z,98918.75
2023-05-20T16:57:37.958Z,98918.38
2023-05-20T17:00:10.703Z,98913.84
2023-05-20T17:02:39.245Z,98909.28
2023-05-20T17:05:08.328Z,98904.75
2023-05-20T17:07:37.434Z,98907.94
2023-05-20T17:10:06.142Z,98903.41
2023-05-20T17:12:34.551Z,98900.94
2023-05-20T17:15:03.208Z,98898.13
2023-05-20T17:17:31.613Z,98900.72
2023-05-20T17:20:00.033Z,98901.09
2023-05-20T17:22:28.442Z,98890.16
2023-05-20T17:24:57.035Z,98888.44
2023-05-20T17:27:25.436Z,98881.28
2023-05-20T17:29:53.938Z,98886.94
2023-05-20T17:32:22.382Z,98890.31
2023-05-20T17:34:50.821Z,98883.16
2023-05-20T17:37:19.308Z,98880.88
2023-05-20T17:39:47.713Z,98877.13
2023-05-20T17:42:16.113Z,98869.56
2023-05-20T17:44:44.512Z,98881.97
2023-05-20T17:47:12.919Z,98871.56
2023-05-20T17:49:41.601Z,98866.09
2023-05-20T17:52:10.112Z,98862.88
2023-05-20T17:54:38.505Z,98863.94
2023-05-20T17:57:07.255Z,98865.81
2023-05-20T17:59:37.561Z,98857.16
2023-05-20T18:02:07.096Z,98851.31
2023-05-20T18:04:35.641Z,98846.22
2023-05-20T18:07:04.911Z,98858.06
2023-05-20T18:09:33.436Z,98852.75
2023-05-20T18:12:02.118Z,98840.50
2023-05-20T18:14:30.577Z,98836.72
2023-05-20T18:16:59.260Z,98850.09
2023-05-20T18:19:27.943Z,98844.81
2023-05-20T18:21:56.652Z,98841.78
2023-05-20T18:24:25.129Z,98837.25
2023-05-20T18:26:53.560Z,98840.06
2023-05-20T18:29:24.400Z,98841.38
2023-05-20T18:31:52.932Z,98843.44
2023-05-20T18:34:21.711Z,98843.44
2023-05-20T18:36:50.708Z,98848.34
2023-05-20T18:39:21.529Z,98840.63
2023-05-20T18:41:50.007Z,98835.75
2023-05-20T18:44:19.749Z,98836.50
2023-05-20T18:46:48.283Z,98827.81
2023-05-20T18:49:16.830Z,98825.00
2023-05-20T18:51:45.284Z,98821.97
2023-05-20T18:54:13.678Z,98807.69
2023-05-20T18:56:42.553Z,98811.81
2023-05-20T18:59:10.937Z,98809.19
2023-05-20T19:01:40.543Z,98807.13
2023-05-20T19:04:09.113Z,98804.31
2023-05-20T19:06:38.404Z,98807.88
2023-05-20T19:09:07.394Z,98796.59
2023-05-20T19:11:35.874Z,98795.84
2023-05-20T19:14:05.449Z,98794.88
2023-05-20T19:16:34.268Z,98792.06
2023-05-20T19:19:02.895Z,98797.50
2023-05-20T19:21:32.318Z,98793.94
2023-05-20T19:24:01.080Z,98792.41
2023-05-20T19:26:29.607Z,98796.75
2023-05-20T19:28:58.102Z,98796.75
2023-05-20T19:31:26.697Z,98796.53
2023-05-20T19:33:55.420Z,98799.34
2023-05-20T19:36:23.935Z,98797.28
2023-05-20T19:38:52.410Z,98787.31
2023-05-20T19:41:20.974Z,98782.97
2023-05-20T19:43:49.521Z,98779.97
2023-05-20T19:46:18.239Z,98769.22
2023-05-20T19:48:46.807Z,98773.38
2023-05-20T19:51:15.665Z,98779.56
2023-05-20T19:53:44.102Z,98783.69
2023-05-20T19:56:13.476Z,98782.72
2023-05-20T19:58:41.921Z,98784.81
2023-05-20T20:01:11.824Z,98773.31
2023-05-20T20:03:43.604Z,98771.63
2023-05-20T20:06:12.812Z,98763.47
2023-05-20T20:08:41.307Z,98775.88
2023-05-20T20:11:10.244Z,98776.41
2023-05-20T20:13:38.688Z,98769.78
2023-05-20T20:16:08.588Z,98761.88
2023-05-20T20:18:37.091Z,98768.09
2023-05-20T20:21:06.583Z,98768.63
2023-05-20T20:23:37.628Z,98763.34
2023-05-20T20:26:07.331Z,98761.09
2023-05-20T20:28:35.863Z,98762.19
2023-05-20T20:31:04.462Z,98766.31
2023-05-20T20:33:32.904Z,98771.19
2023-05-20T20:36:02.570Z,98763.09
2023-05-20T20:38:31.413Z,98773.41
2023-05-20T20:41:00.374Z,98775.81
2023-05-20T20:43:29.797Z,98774.09
2023-05-20T20:45:58.459Z,98772.56
2023-05-20T20:48:27.814Z,98775.94
2023-05-20T20:50:56.307Z,98779.31
2023-05-20T20:53:24.741Z,98769.34
2023-05-20T20:55:53.219Z,98772.50
2023-05-20T20:58:21.672Z,98770.81
2023-05-20T21:00:50.551Z,98768.31
2023-05-20T21:03:19.422Z,98781.47
2023-05-20T21:05:49.514Z,98773.34
2023-05-20T21:08:17.898Z,98783.09
2023-05-20T21:10:46.731Z,98790.81
2023-05-20T21:13:15.539Z,98785.69
2023-05-20T21:15:44.097Z,98782.88
2023-05-20T21:18:14.408Z,98784.69
2023-05-20T21:20:42.790Z,98785.03
2023-05-20T21:23:11.177Z,98792.53
2023-05-20T21:25:39.556Z,98800.22
2023-05-20T21:28:07.942Z,98803.59
2023-05-20T21:30:36.539Z,98797.97
2023-05-20T21:33:05.541Z,98802.09
2023-05-20T21:35:34.269Z,98809.03
2023-05-20T21:38:02.899Z,98808.25
2023-05-20T21:40:31.463Z,98816.72
2023-05-20T21:42:59.946Z,98816.50
2023-05-20T21:45:28.366Z,98811.63
2023-05-20T21:47:56.957Z,98819.31
2023-05-20T21:50:25.619Z,98817.81
2023-05-20T21:52:54.011Z,98815.53
2023-05-20T21:55:24.555Z,98818.16
2023-05-20T21:57:53.080Z,98812.31
2023-05-20T22:00:21.602Z,98827.16
2023-05-20T22:02:51.731Z,98833.31
2023-05-20T22:05:20.818Z,98841.78
2023-05-20T22:07:49.756Z,98837.25
2023-05-20T22:10:18.770Z,98844.16
2023-05-20T22:12:51.770Z,98847.53
2023-05-20T22:15:20.391Z,98850.13
2023-05-20T22:17:49.333Z,98851.41
2023-05-20T22:20:17.866Z,98856.09
2023-05-20T22:22:46.697Z,98846.88
2023-05-20T22:25:15.147Z,98853.25
2023-05-20T22:27:44.921Z,98862.25
2023-05-20T22:30:14.068Z,98867.13
2023-05-20T22:32:42.673Z,98871.78
2023-05-20T22:35:13.968Z,98867.47
2023-05-20T22:37:42.802Z,98872.56
2023-05-20T22:40:11.686Z,98883.06
2023-05-20T22:42:40.085Z,98885.88
2023-05-20T22:45:09.179Z,98885.88
2023-05-20T22:47:38.052Z,98888.69
2023-05-20T22:50:07.478Z,98895.06
2023-05-20T22:52:37.796Z,98897.13
2023-05-20T22:55:06.833Z,98904.81
2023-05-20T22:57:35.280Z,98918.91
2023-05-20T23:00:05.689Z,98915.31
2023-05-20T23:02:34.762Z,98918.91
2023-05-20T23:05:05.372Z,98917.38
2023-05-20T23:07:33.817Z,98920.97
2023-05-20T23:10:03.377Z,98931.69
2023-05-20T23:12:31.832Z,98927.00
2023-05-20T23:15:00.226Z,98937.75
2023-05-20T23:17:28.642Z,98936.44
2023-05-20T23:19:57.782Z,98933.84
2023-05-20T23:22:26.323Z,98933.28
2023-05-20T23:24:54.782Z,98938.63
2023-05-20T23:27:23.308Z,98938.06
2023-05-20T23:29:51.868Z,98939.78
2023-05-20T23:32:20.284Z,98939.69
2023-05-20T23:34:48.713Z,98938.78
2023-05-20T23:37:17.371Z,98935.66
2023-05-20T23:39:45.818Z,98944.53
2023-05-20T23:42:14.295Z,98947.56
2023-05-20T23:44:42.749Z,98949.34
2023-05-20T23:47:14.301Z,98951.81
2023-05-20T23:49:43.074Z,98947.69
2023-05-20T23:52:11.489Z,98953.53
2023-05-20T23:54:39.918Z,98962.41
2023-05-20T23:57:11.181Z,98951.56
2023-05-20T23:59:39.853Z,98952.94
